createdAt,value
2018-12-27T00:01:53.154Z,16.87
2018-12-27T00:04:21.357Z,16.23
2018-12-27T00:06:49.532Z,16.23
2018-12-27T00:09:17.744Z,18.00
2018-12-27T00:11:45.921Z,17.77
2018-12-27T00:14:14.137Z,14.33
2018-12-27T00:16:42.312Z,16.47
2018-12-27T00:19:10.524Z,17.57
2018-12-27T00:21:38.698Z,16.03
2018-12-27T00:24:06.909Z,17.30
2018-12-27T00:26:35.086Z,18.40
2018-12-27T00:29:03.302Z,19.73
2018-12-27T00:31:31.675Z,17.37
2018-12-27T00:34:00.024Z,15.70
2018-12-27T00:36:28.429Z,16.47
2018-12-27T00:38:56.819Z,17.63
2018-12-27T00:41:25.168Z,17.90
2018-12-27T00:43:53.568Z,13.70
2018-12-27T00:46:21.912Z,18.03
2018-12-27T00:48:50.286Z,17.47
2018-12-27T00:51:18.632Z,17.93
2018-12-27T00:53:47.012Z,15.73
2018-12-27T00:56:15.357Z,18.10
2018-12-27T00:58:43.740Z,19.80
2018-12-27T01:01:12.133Z,16.67
2018-12-27T01:03:40.431Z,17.80
2018-12-27T01:06:08.819Z,19.17
2018-12-27T01:08:37.160Z,15.77
2018-12-27T01:11:05.538Z,17.07
2018-12-27T01:13:33.884Z,17.67
2018-12-27T01:16:02.395Z,18.63
2018-12-27T01:18:30.812Z,17.93
2018-12-27T01:20:59.191Z,18.33
2018-12-27T01:23:27.537Z,17.27
2018-12-27T01:25:55.914Z,18.13
2018-12-27T01:28:24.256Z,14.70
2018-12-27T01:30:52.635Z,17.47
2018-12-27T01:33:20.979Z,18.40
2018-12-27T01:35:49.359Z,16.57
2018-12-27T01:38:17.700Z,14.90
2018-12-27T01:40:46.084Z,16.90
2018-12-27T01:43:14.428Z,17.17
2018-12-27T01:45:42.808Z,15.50
2018-12-27T01:48:11.151Z,16.37
2018-12-27T01:50:39.532Z,18.53
2018-12-27T01:53:07.881Z,19.33
2018-12-27T01:55:36.265Z,18.23
2018-12-27T01:58:04.607Z,16.43
2018-12-27T02:00:32.997Z,16.27
2018-12-27T02:03:01.348Z,17.53
2018-12-27T02:05:29.683Z,17.93
2018-12-27T02:07:58.061Z,18.20
2018-12-27T02:10:26.403Z,19.53
2018-12-27T02:12:54.790Z,19.03
2018-12-27T02:15:23.137Z,17.33
2018-12-27T02:17:51.531Z,16.57
2018-12-27T02:20:21.486Z,17.70
2018-12-27T02:22:50.068Z,16.43
2018-12-27T02:25:18.416Z,18.03
2018-12-27T02:27:46.806Z,20.10
2018-12-27T02:30:15.146Z,17.93
2018-12-27T02:32:43.533Z,17.63
2018-12-27T02:35:11.877Z,19.73
2018-12-27T02:37:40.259Z,18.40
2018-12-27T02:40:08.613Z,17.97
2018-12-27T02:42:36.988Z,18.30
2018-12-27T02:45:05.333Z,19.80
2018-12-27T02:47:33.704Z,20.13
2018-12-27T02:50:02.047Z,16.77
2018-12-27T02:52:30.432Z,19.37
2018-12-27T02:54:58.773Z,17.40
2018-12-27T02:57:27.153Z,18.60
2018-12-27T02:59:55.501Z,18.23
2018-12-27T03:02:23.883Z,16.97
2018-12-27T03:04:52.232Z,24.72
2018-12-27T03:07:20.571Z,20.03
2018-12-27T03:09:48.952Z,19.57
2018-12-27T03:12:17.299Z,19.97
2018-12-27T03:14:45.785Z,20.77
2018-12-27T03:17:14.227Z,18.33
2018-12-27T03:19:42.608Z,19.97
2018-12-27T03:22:10.953Z,18.93
2018-12-27T03:24:39.337Z,18.83
2018-12-27T03:27:07.687Z,19.53
2018-12-27T03:29:36.067Z,17.80
2018-12-27T03:32:04.414Z,19.43
2018-12-27T03:34:32.793Z,16.73
2018-12-27T03:37:01.141Z,17.50
2018-12-27T03:39:29.520Z,14.20
2018-12-27T03:41:57.867Z,17.37
2018-12-27T03:44:26.252Z,18.37
2018-12-27T03:46:54.597Z,16.57
2018-12-27T03:49:22.977Z,17.13
2018-12-27T03:51:51.321Z,17.23
2018-12-27T03:54:19.705Z,18.03
2018-12-27T03:56:48.056Z,16.57
2018-12-27T03:59:16.442Z,16.60
2018-12-27T04:01:44.784Z,17.73
2018-12-27T04:04:13.167Z,18.33
2018-12-27T04:06:41.554Z,16.47
2018-12-27T04:09:09.897Z,17.83
2018-12-27T04:11:38.280Z,17.17
2018-12-27T04:14:06.629Z,18.13
2018-12-27T04:16:34.843Z,18.50
2018-12-27T04:19:03.020Z,18.27
2018-12-27T04:21:31.233Z,16.17
2018-12-27T04:23:59.458Z,17.07
2018-12-27T04:26:27.669Z,16.50
2018-12-27T04:28:55.855Z,16.60
2018-12-27T04:31:24.057Z,15.73
2018-12-27T04:33:52.232Z,16.27
2018-12-27T04:36:20.447Z,16.57
2018-12-27T04:38:48.622Z,16.70
2018-12-27T04:41:16.828Z,17.03
2018-12-27T04:43:45.004Z,18.17
2018-12-27T04:46:13.220Z,15.90
2018-12-27T04:48:41.392Z,17.43
2018-12-27T04:51:09.610Z,15.50
2018-12-27T04:53:37.786Z,16.83
2018-12-27T04:56:06.003Z,15.83
2018-12-27T04:58:34.175Z,17.00
2018-12-27T05:01:02.469Z,16.90
2018-12-27T05:03:30.741Z,16.63
2018-12-27T05:05:58.955Z,16.77
2018-12-27T05:08:27.134Z,16.87
2018-12-27T05:10:55.348Z,16.80
2018-12-27T05:13:23.521Z,17.00
2018-12-27T05:15:51.737Z,18.33
2018-12-27T05:18:19.915Z,16.63
2018-12-27T05:20:48.086Z,16.17
2018-12-27T05:23:16.295Z,16.77
2018-12-27T05:25:44.472Z,19.00
2018-12-27T05:28:12.687Z,18.07
2018-12-27T05:30:40.861Z,17.97
2018-12-27T05:33:09.079Z,17.97
2018-12-27T05:35:37.242Z,16.40
2018-12-27T05:38:05.468Z,18.73
2018-12-27T05:40:33.640Z,18.00
2018-12-27T05:43:01.852Z,17.40
2018-12-27T05:45:30.030Z,17.73
2018-12-27T05:47:58.235Z,15.63
2018-12-27T05:50:26.418Z,17.10
2018-12-27T05:52:54.655Z,14.90
2018-12-27T05:55:22.830Z,18.37
2018-12-27T05:57:51.044Z,15.43
2018-12-27T06:00:19.221Z,16.17
2018-12-27T06:02:47.439Z,16.50
2018-12-27T06:05:15.608Z,17.33
2018-12-27T06:07:43.820Z,15.30
2018-12-27T06:10:12.001Z,15.53
2018-12-27T06:12:40.218Z,15.77
2018-12-27T06:15:08.396Z,16.57
2018-12-27T06:17:36.612Z,17.50
2018-12-27T06:20:04.794Z,16.73
2018-12-27T06:22:32.969Z,16.03
2018-12-27T06:25:01.192Z,15.70
2018-12-27T06:27:29.362Z,15.93
2018-12-27T06:29:57.580Z,17.37
2018-12-27T06:32:25.845Z,16.20
2018-12-27T06:34:54.057Z,16.47
2018-12-27T06:37:22.233Z,16.77
2018-12-27T06:39:50.444Z,16.83
2018-12-27T06:42:18.624Z,16.77
2018-12-27T06:44:46.829Z,15.53
2018-12-27T06:47:15.001Z,16.23
2018-12-27T06:49:43.213Z,15.23
2018-12-27T06:52:11.400Z,15.30
2018-12-27T06:54:39.598Z,15.87
2018-12-27T06:57:07.976Z,16.13
2018-12-27T06:59:36.189Z,16.77
2018-12-27T07:02:04.365Z,18.63
2018-12-27T07:04:32.576Z,17.47
2018-12-27T07:07:00.754Z,17.17
2018-12-27T07:09:28.964Z,16.70
2018-12-27T07:11:57.140Z,17.20
2018-12-27T07:14:25.357Z,17.77
2018-12-27T07:16:53.531Z,15.90
2018-12-27T07:19:21.750Z,16.30
2018-12-27T07:21:49.923Z,17.70
2018-12-27T07:24:18.153Z,17.33
2018-12-27T07:26:46.329Z,16.77
2018-12-27T07:29:14.511Z,18.00
2018-12-27T07:31:42.726Z,17.60
2018-12-27T07:34:10.900Z,17.90
2018-12-27T07:36:39.120Z,17.07
2018-12-27T07:39:07.299Z,14.10
2018-12-27T07:41:35.519Z,15.37
2018-12-27T07:44:03.692Z,15.40
2018-12-27T07:46:31.900Z,15.50
2018-12-27T07:49:00.144Z,15.70
2018-12-27T07:51:28.352Z,17.27
2018-12-27T07:53:56.523Z,13.37
2018-12-27T07:56:24.742Z,15.43
2018-12-27T07:58:52.916Z,15.10
2018-12-27T08:01:21.128Z,17.30
2018-12-27T08:03:49.304Z,17.03
2018-12-27T08:06:17.520Z,18.30
2018-12-27T08:08:45.700Z,14.73
2018-12-27T08:11:13.921Z,15.43
2018-12-27T08:13:42.092Z,14.53
2018-12-27T08:16:10.305Z,14.60
2018-12-27T08:18:38.482Z,15.23
2018-12-27T08:21:06.691Z,16.07
2018-12-27T08:23:34.871Z,17.33
2018-12-27T08:26:03.081Z,17.13
2018-12-27T08:28:31.261Z,16.80
2018-12-27T08:30:59.469Z,16.53
2018-12-27T08:33:27.649Z,16.97
2018-12-27T08:35:55.866Z,16.80
2018-12-27T08:38:24.044Z,17.43
2018-12-27T08:40:52.264Z,15.57
2018-12-27T08:43:20.476Z,15.70
2018-12-27T08:45:48.657Z,16.33
2018-12-27T08:48:16.873Z,17.67
2018-12-27T08:50:45.047Z,15.43
2018-12-27T08:53:13.256Z,15.10
2018-12-27T08:55:41.448Z,16.40
2018-12-27T08:58:09.655Z,15.93
2018-12-27T09:00:37.831Z,16.83
2018-12-27T09:03:06.041Z,16.70
2018-12-27T09:05:34.220Z,16.17
2018-12-27T09:08:02.438Z,17.20
2018-12-27T09:10:30.617Z,14.00
2018-12-27T09:12:58.828Z,22.13
2018-12-27T09:15:34.844Z,16.00
2018-12-27T09:18:03.150Z,17.83
2018-12-27T09:20:31.325Z,16.07
2018-12-27T09:22:59.536Z,16.53
2018-12-27T09:25:27.718Z,16.30
2018-12-27T09:27:55.932Z,16.93
2018-12-27T09:30:24.103Z,17.83
2018-12-27T09:32:52.311Z,17.90
2018-12-27T09:35:26.293Z,16.23
2018-12-27T09:37:50.355Z,15.57
2018-12-27T09:40:18.533Z,15.60
2018-12-27T09:42:46.748Z,17.87
2018-12-27T09:45:14.931Z,16.57
2018-12-27T09:47:43.135Z,18.43
2018-12-27T09:50:11.312Z,19.07
2018-12-27T09:52:39.527Z,18.93
2018-12-27T09:55:07.752Z,17.33
2018-12-27T09:57:35.973Z,16.33
2018-12-27T10:00:28.085Z,17.47
2018-12-27T10:02:57.060Z,15.70
2018-12-27T10:05:33.746Z,18.07
2018-12-27T10:07:58.955Z,17.03
2018-12-27T10:10:27.172Z,15.60
2018-12-27T10:12:55.396Z,15.97
2018-12-27T10:15:25.764Z,16.70
2018-12-27T10:17:53.940Z,17.03
2018-12-27T10:20:22.156Z,16.37
2018-12-27T10:22:50.334Z,18.77
2018-12-27T10:25:18.548Z,16.50
2018-12-27T10:27:46.724Z,17.63
2018-12-27T10:30:14.941Z,17.80
2018-12-27T10:32:43.115Z,17.10
2018-12-27T10:35:11.332Z,19.43
2018-12-27T10:37:39.508Z,17.83
2018-12-27T10:40:09.373Z,18.97
2018-12-27T10:42:37.549Z,18.03
2018-12-27T10:45:06.927Z,18.53
2018-12-27T10:47:35.141Z,19.67
2018-12-27T10:50:04.089Z,16.60
2018-12-27T10:52:32.753Z,19.87
2018-12-27T10:55:00.938Z,18.83
2018-12-27T10:57:29.107Z,19.20
2018-12-27T10:59:57.686Z,17.60
2018-12-27T11:02:25.832Z,17.37
2018-12-27T11:04:54.043Z,15.47
2018-12-27T11:07:22.225Z,16.67
2018-12-27T11:09:50.427Z,16.23
2018-12-27T11:12:18.690Z,15.00
2018-12-27T11:14:47.015Z,13.57
2018-12-27T11:17:17.768Z,14.97
2018-12-27T11:19:45.985Z,16.03
2018-12-27T11:22:14.151Z,15.37
2018-12-27T11:24:42.367Z,16.07
2018-12-27T11:27:10.544Z,15.17
2018-12-27T11:29:39.862Z,16.07
2018-12-27T11:32:08.041Z,17.20
2018-12-27T11:34:36.256Z,16.07
2018-12-27T11:37:06.074Z,14.77
2018-12-27T11:39:34.460Z,16.93
2018-12-27T11:42:02.669Z,16.23
2018-12-27T11:44:30.840Z,16.10
2018-12-27T11:46:59.055Z,15.20
2018-12-27T11:49:27.236Z,15.27
2018-12-27T11:51:55.443Z,15.67
2018-12-27T11:54:23.621Z,15.53
2018-12-27T11:56:53.677Z,15.47
2018-12-27T11:59:21.852Z,15.67
2018-12-27T12:01:50.070Z,13.97
2018-12-27T12:04:18.243Z,13.03
2018-12-27T12:06:46.459Z,14.27
2018-12-27T12:09:14.640Z,14.37
2018-12-27T12:11:42.852Z,14.27
2018-12-27T12:14:11.021Z,14.20
2018-12-27T12:16:39.229Z,15.43
2018-12-27T12:19:08.682Z,15.40
2018-12-27T12:21:36.980Z,14.67
2018-12-27T12:24:05.602Z,16.50
2018-12-27T12:26:34.562Z,16.10
2018-12-27T12:29:03.653Z,14.87
2018-12-27T12:31:33.360Z,14.07
2018-12-27T12:34:01.612Z,14.93
2018-12-27T12:36:29.825Z,13.67
2018-12-27T12:38:58.002Z,15.07
2018-12-27T12:41:26.215Z,14.90
2018-12-27T12:43:54.403Z,16.50
2018-12-27T12:46:22.648Z,19.93
2018-12-27T12:48:50.821Z,17.17
2018-12-27T12:51:19.001Z,17.60
2018-12-27T12:53:47.212Z,16.50
2018-12-27T12:56:15.394Z,17.03
2018-12-27T12:58:43.593Z,15.83
2018-12-27T13:01:11.773Z,16.57
2018-12-27T13:03:39.981Z,14.77
2018-12-27T13:06:08.167Z,15.83
2018-12-27T13:08:36.478Z,16.37
2018-12-27T13:11:04.648Z,15.00
2018-12-27T13:13:32.858Z,16.30
2018-12-27T13:16:01.043Z,15.67
2018-12-27T13:18:29.261Z,15.40
2018-12-27T13:20:57.454Z,14.87
2018-12-27T13:23:25.664Z,15.53
2018-12-27T13:25:58.887Z,14.47
2018-12-27T13:28:28.474Z,17.10
2018-12-27T13:30:56.724Z,16.20
2018-12-27T13:33:24.967Z,16.50
2018-12-27T13:35:53.134Z,14.93
2018-12-27T13:38:21.344Z,15.87
2018-12-27T13:40:49.520Z,16.40
2018-12-27T13:43:17.733Z,15.37
2018-12-27T13:45:45.907Z,14.53
2018-12-27T13:48:14.120Z,15.13
2018-12-27T13:50:42.300Z,15.57
2018-12-27T13:53:10.557Z,14.77
2018-12-27T13:55:38.774Z,15.57
2018-12-27T13:58:07.007Z,14.83
2018-12-27T14:00:35.221Z,15.47
2018-12-27T14:03:03.397Z,15.33
2018-12-27T14:05:32.605Z,14.13
2018-12-27T14:08:00.778Z,13.60
2018-12-27T14:10:28.999Z,14.43
2018-12-27T14:12:57.159Z,14.97
2018-12-27T14:15:25.372Z,14.83
2018-12-27T14:17:53.556Z,15.03
2018-12-27T14:20:21.764Z,14.80
2018-12-27T14:22:49.944Z,15.30
2018-12-27T14:25:18.168Z,19.80
2018-12-27T14:27:46.340Z,16.70
2018-12-27T14:30:14.552Z,16.97
2018-12-27T14:32:42.731Z,16.73
2018-12-27T14:35:19.193Z,17.13
2018-12-27T14:37:49.509Z,17.57
2018-12-27T14:40:17.648Z,16.47
2018-12-27T14:42:45.820Z,16.60
2018-12-27T14:45:14.029Z,16.00
2018-12-27T14:47:43.220Z,16.00
2018-12-27T14:50:11.515Z,14.40
2018-12-27T14:52:39.694Z,15.33
2018-12-27T14:55:07.904Z,14.67
2018-12-27T14:57:36.081Z,15.27
2018-12-27T15:00:05.636Z,14.57
2018-12-27T15:02:33.816Z,15.77
2018-12-27T15:05:02.001Z,14.27
2018-12-27T15:07:30.224Z,14.83
2018-12-27T15:09:58.396Z,14.47
2018-12-27T15:12:26.609Z,17.13
2018-12-27T15:14:54.790Z,16.47
2018-12-27T15:17:23.091Z,15.57
2018-12-27T15:19:51.201Z,16.33
2018-12-27T15:22:19.408Z,15.57
2018-12-27T15:24:47.588Z,14.80
2018-12-27T15:27:15.797Z,14.90
2018-12-27T15:29:43.991Z,15.27
2018-12-27T15:32:12.202Z,15.17
2018-12-27T15:34:40.376Z,14.53
2018-12-27T15:37:08.593Z,14.20
2018-12-27T15:39:36.773Z,14.97
2018-12-27T15:42:04.979Z,15.20
2018-12-27T15:44:33.156Z,14.83
2018-12-27T15:47:01.541Z,15.57
2018-12-27T15:49:29.723Z,15.73
2018-12-27T15:51:57.933Z,15.87
2018-12-27T15:54:26.113Z,16.60
2018-12-27T15:56:54.324Z,17.77
2018-12-27T15:59:22.498Z,17.00
2018-12-27T16:01:50.681Z,18.50
2018-12-27T16:04:18.897Z,17.90
2018-12-27T16:06:47.076Z,18.77
2018-12-27T16:09:15.283Z,18.53
2018-12-27T16:11:43.464Z,18.37
2018-12-27T16:14:11.677Z,18.40
2018-12-27T16:16:39.853Z,18.40
2018-12-27T16:19:08.070Z,17.97
2018-12-27T16:21:36.243Z,19.03
2018-12-27T16:24:04.460Z,20.00
2018-12-27T16:26:32.636Z,17.47
2018-12-27T16:29:00.853Z,18.07
2018-12-27T16:31:29.038Z,18.37
2018-12-27T16:33:57.248Z,18.40
2018-12-27T16:36:25.423Z,21.40
2018-12-27T16:38:53.640Z,22.83
2018-12-27T16:41:21.808Z,20.77
2018-12-27T16:43:50.028Z,19.60
2018-12-27T16:46:18.192Z,25.40
2018-12-27T16:48:46.368Z,23.17
2018-12-27T16:51:14.576Z,23.23
2018-12-27T16:53:42.757Z,24.07
2018-12-27T16:56:10.964Z,21.10
2018-12-27T16:58:39.146Z,24.43
2018-12-27T17:01:07.359Z,22.60
2018-12-27T17:03:35.538Z,21.80
2018-12-27T17:06:03.758Z,22.50
2018-12-27T17:08:31.935Z,23.87
2018-12-27T17:11:00.149Z,21.13
2018-12-27T17:13:28.325Z,21.17
2018-12-27T17:15:56.553Z,21.60
2018-12-27T17:18:24.715Z,19.53
2018-12-27T17:20:52.929Z,17.37
2018-12-27T17:23:21.101Z,17.03
2018-12-27T17:25:49.312Z,18.37
2018-12-27T17:28:17.494Z,18.93
2018-12-27T17:30:45.709Z,19.00
2018-12-27T17:33:13.883Z,18.63
2018-12-27T17:35:42.100Z,18.83
2018-12-27T17:38:10.277Z,19.03
2018-12-27T17:40:38.493Z,17.37
2018-12-27T17:43:16.490Z,16.03
2018-12-27T17:45:44.704Z,14.23
2018-12-27T17:48:12.885Z,18.90
2018-12-27T17:50:41.066Z,17.67
2018-12-27T17:53:09.282Z,18.30
2018-12-27T17:55:37.460Z,17.90
2018-12-27T17:58:05.667Z,21.03
2018-12-27T18:00:33.850Z,22.60
2018-12-27T18:03:02.068Z,21.87
2018-12-27T18:05:30.240Z,22.47
2018-12-27T18:07:58.454Z,23.27
2018-12-27T18:10:26.633Z,23.87
2018-12-27T18:12:54.846Z,22.90
2018-12-27T18:15:23.027Z,21.87
2018-12-27T18:17:51.245Z,21.23
2018-12-27T18:20:19.429Z,20.93
2018-12-27T18:22:47.641Z,18.57
2018-12-27T18:25:15.819Z,15.23
2018-12-27T18:27:44.037Z,15.00
2018-12-27T18:30:12.212Z,15.97
2018-12-27T18:32:40.424Z,15.23
2018-12-27T18:35:08.661Z,16.97
2018-12-27T18:37:37.803Z,17.33
2018-12-27T18:40:06.348Z,17.10
2018-12-27T18:42:34.560Z,17.73
2018-12-27T18:45:02.741Z,17.20
2018-12-27T18:47:30.968Z,17.73
2018-12-27T18:49:59.138Z,18.33
2018-12-27T18:52:27.343Z,15.67
2018-12-27T18:54:55.522Z,17.90
2018-12-27T18:57:23.696Z,17.33
2018-12-27T18:59:51.909Z,18.40
2018-12-27T19:02:20.094Z,17.77
2018-12-27T19:04:48.479Z,18.67
2018-12-27T19:07:16.653Z,21.53
2018-12-27T19:09:44.869Z,24.03
2018-12-27T19:12:31.466Z,19.57
2018-12-27T19:15:00.447Z,18.83
2018-12-27T19:17:29.897Z,17.83
2018-12-27T19:19:58.133Z,16.57
2018-12-27T19:22:27.876Z,18.17
2018-12-27T19:24:56.089Z,16.27
2018-12-27T19:27:24.266Z,16.27
2018-12-27T19:29:52.477Z,16.33
2018-12-27T19:32:20.661Z,15.13
2018-12-27T19:34:48.877Z,16.23
2018-12-27T19:37:17.053Z,17.97
2018-12-27T19:39:45.264Z,17.40
2018-12-27T19:42:13.444Z,17.80
2018-12-27T19:44:41.666Z,16.73
2018-12-27T19:47:09.837Z,18.13
2018-12-27T19:49:38.054Z,17.63
2018-12-27T19:52:06.231Z,17.77
2018-12-27T19:54:34.441Z,18.73
2018-12-27T19:57:02.622Z,18.00
2018-12-27T19:59:30.837Z,18.03
2018-12-27T20:01:59.013Z,16.80
2018-12-27T20:04:27.225Z,17.30
2018-12-27T20:06:55.410Z,18.47
2018-12-27T20:09:23.624Z,18.40
2018-12-27T20:11:51.909Z,17.37
2018-12-27T20:14:20.117Z,19.43
2018-12-27T20:16:48.292Z,18.20
2018-12-27T20:19:16.501Z,16.93
2018-12-27T20:21:44.682Z,17.67
2018-12-27T20:24:13.156Z,19.13
2018-12-27T20:26:41.328Z,18.10
2018-12-27T20:29:09.509Z,18.37
2018-12-27T20:31:37.725Z,18.57
2018-12-27T20:34:05.907Z,18.40
2018-12-27T20:36:34.157Z,18.07
2018-12-27T20:39:02.338Z,18.10
2018-12-27T20:41:30.548Z,18.43
2018-12-27T20:43:58.802Z,16.30
2018-12-27T20:46:27.011Z,18.07
2018-12-27T20:48:55.194Z,19.13
2018-12-27T20:51:23.473Z,20.53
2018-12-27T20:53:51.652Z,20.37
2018-12-27T20:56:19.865Z,18.73
2018-12-27T20:58:48.045Z,21.13
2018-12-27T21:01:16.258Z,21.30
2018-12-27T21:03:44.438Z,20.53
2018-12-27T21:06:12.648Z,18.33
2018-12-27T21:08:40.817Z,18.77
2018-12-27T21:11:09.184Z,20.10
2018-12-27T21:13:37.309Z,20.23
2018-12-27T21:16:05.523Z,17.80
2018-12-27T21:18:33.699Z,20.00
2018-12-27T21:21:01.916Z,17.20
2018-12-27T21:23:30.088Z,19.20
2018-12-27T21:25:58.297Z,19.27
2018-12-27T21:28:26.478Z,19.80
2018-12-27T21:30:54.734Z,18.43
2018-12-27T21:33:22.908Z,16.67
2018-12-27T21:35:51.089Z,17.03
2018-12-27T21:38:21.509Z,17.83
2018-12-27T21:40:49.133Z,17.20
2018-12-27T21:43:17.351Z,17.97
2018-12-27T21:45:45.525Z,20.60
2018-12-27T21:48:13.732Z,20.33
2018-12-27T21:50:41.910Z,18.57
2018-12-27T21:53:10.128Z,18.47
2018-12-27T21:55:38.378Z,18.40
2018-12-27T21:58:06.589Z,18.57
2018-12-27T22:00:34.817Z,18.57
2018-12-27T22:03:03.035Z,16.73
2018-12-27T22:05:31.211Z,18.83
2018-12-27T22:07:59.431Z,18.23
2018-12-27T22:10:27.604Z,19.47
2018-12-27T22:12:55.816Z,19.00
2018-12-27T22:15:23.994Z,19.73
2018-12-27T22:17:52.204Z,18.83
2018-12-27T22:20:20.381Z,18.80
2018-12-27T22:22:48.595Z,17.70
2018-12-27T22:25:16.765Z,19.10
2018-12-27T22:27:44.989Z,19.43
2018-12-27T22:30:13.155Z,18.27
2018-12-27T22:32:41.341Z,17.53
2018-12-27T22:35:09.552Z,15.77
2018-12-27T22:37:37.724Z,16.50
2018-12-27T22:40:05.941Z,17.43
2018-12-27T22:42:34.111Z,17.23
2018-12-27T22:45:02.392Z,19.67
2018-12-27T22:47:30.573Z,17.67
2018-12-27T22:49:58.785Z,17.83
2018-12-27T22:52:26.964Z,17.33
2018-12-27T22:54:55.177Z,15.73
2018-12-27T22:57:23.348Z,18.00
2018-12-27T22:59:51.555Z,17.67
2018-12-27T23:02:19.732Z,14.77
2018-12-27T23:04:47.940Z,16.87
2018-12-27T23:07:16.116Z,16.60
2018-12-27T23:09:44.333Z,16.70
2018-12-27T23:12:12.515Z,15.80
2018-12-27T23:14:40.767Z,15.90
2018-12-27T23:17:08.944Z,16.77
2018-12-27T23:19:37.157Z,16.80
2018-12-27T23:22:05.335Z,16.30
2018-12-27T23:24:33.518Z,15.83
2018-12-27T23:27:01.730Z,16.33
2018-12-27T23:29:29.904Z,14.47
2018-12-27T23:31:58.120Z,16.13
2018-12-27T23:34:27.237Z,16.13
2018-12-27T23:36:55.450Z,16.77
2018-12-27T23:39:23.626Z,16.50
2018-12-27T23:41:51.837Z,14.27
2018-12-27T23:44:20.018Z,15.10
2018-12-27T23:46:48.238Z,15.43
2018-12-27T23:49:16.414Z,16.00
2018-12-27T23:51:44.620Z,14.53
2018-12-27T23:54:12.792Z,14.63
2018-12-27T23:56:41.008Z,14.80
2018-12-27T23:59:09.189Z,17.13
